createdAt,value
2023-06-05T00:01:15.273Z,1.34
2023-06-05T00:03:44.327Z,1.44
2023-06-05T00:06:12.005Z,1.33
2023-06-05T00:08:39.168Z,1.34
2023-06-05T00:11:06.408Z,1.37
2023-06-05T00:13:33.623Z,1.19
2023-06-05T00:16:00.822Z,1.33
2023-06-05T00:18:28.084Z,1.12
2023-06-05T00:20:56.716Z,1.26
2023-06-05T00:23:23.816Z,1.32
2023-06-05T00:25:50.984Z,1.26
2023-06-05T00:28:18.225Z,1.24
2023-06-05T00:30:45.591Z,1.39
2023-06-05T00:33:12.832Z,1.29
2023-06-05T00:35:40.491Z,1.32
2023-06-05T00:38:09.049Z,1.36
2023-06-05T00:40:36.306Z,1.60
2023-06-05T00:43:03.964Z,1.39
2023-06-05T00:45:31.103Z,1.57
2023-06-05T00:47:58.424Z,1.43
2023-06-05T00:50:27.029Z,1.42
2023-06-05T00:52:55.668Z,1.38
2023-06-05T00:55:24.452Z,1.41
2023-06-05T00:57:51.708Z,1.29
2023-06-05T01:00:19.087Z,1.51
2023-06-05T01:02:46.406Z,1.48
2023-06-05T01:05:13.687Z,1.25
2023-06-05T01:07:41.840Z,1.59
2023-06-05T01:10:11.268Z,1.95
2023-06-05T01:12:47.667Z,1.70
2023-06-05T01:15:16.290Z,1.57
2023-06-05T01:17:44.948Z,1.29
2023-06-05T01:20:12.999Z,1.37
2023-06-05T01:22:40.681Z,1.32
2023-06-05T01:25:10.071Z,1.48
2023-06-05T01:27:45.891Z,1.48
2023-06-05T01:30:19.371Z,1.61
2023-06-05T01:32:55.134Z,1.47
2023-06-05T01:35:24.255Z,1.53
2023-06-05T01:37:53.020Z,1.36
2023-06-05T01:40:24.532Z,1.37
2023-06-05T01:42:55.329Z,1.45
2023-06-05T01:45:23.402Z,1.55
2023-06-05T01:47:51.374Z,1.43
2023-06-05T01:50:19.526Z,1.42
2023-06-05T01:52:48.355Z,1.30
2023-06-05T01:55:17.703Z,1.56
2023-06-05T01:57:46.379Z,1.41
2023-06-05T02:00:14.626Z,1.74
2023-06-05T02:02:41.860Z,1.58
2023-06-05T02:05:09.769Z,1.51
2023-06-05T02:07:37.951Z,1.63
2023-06-05T02:10:06.034Z,1.70
2023-06-05T02:12:33.150Z,1.32
2023-06-05T02:15:02.265Z,1.51
2023-06-05T02:17:29.431Z,1.39
2023-06-05T02:19:56.672Z,1.48
2023-06-05T02:22:23.828Z,1.35
2023-06-05T02:24:51.130Z,1.41
2023-06-05T02:27:18.594Z,1.27
2023-06-05T02:29:46.020Z,1.42
2023-06-05T02:32:14.635Z,1.49
2023-06-05T02:34:41.787Z,1.52
2023-06-05T02:37:08.917Z,1.41
2023-06-05T02:39:36.013Z,1.27
2023-06-05T02:42:03.173Z,1.48
2023-06-05T02:44:30.438Z,1.40
2023-06-05T02:46:57.545Z,1.52
2023-06-05T02:49:26.094Z,1.60
2023-06-05T02:51:53.233Z,1.44
2023-06-05T02:54:20.452Z,1.51
2023-06-05T02:56:47.617Z,1.62
2023-06-05T02:59:14.816Z,1.38
2023-06-05T03:01:42.046Z,1.42
2023-06-05T03:04:09.230Z,1.32
2023-06-05T03:06:37.733Z,1.43
2023-06-05T03:09:04.962Z,1.43
2023-06-05T03:11:32.054Z,1.48
2023-06-05T03:13:59.234Z,1.45
2023-06-05T03:16:26.480Z,1.41
2023-06-05T03:18:53.708Z,1.36
2023-06-05T03:21:20.813Z,1.52
2023-06-05T03:23:49.728Z,1.48
2023-06-05T03:26:16.935Z,1.52
2023-06-05T03:28:44.075Z,1.38
2023-06-05T03:31:11.233Z,1.39
2023-06-05T03:33:38.378Z,1.38
2023-06-05T03:36:06.052Z,1.27
2023-06-05T03:38:33.141Z,1.42
2023-06-05T03:41:01.824Z,1.58
2023-06-05T03:43:28.964Z,1.22
2023-06-05T03:45:56.253Z,1.73
2023-06-05T03:48:23.391Z,1.43
2023-06-05T03:50:50.523Z,1.31
2023-06-05T03:53:17.773Z,1.48
2023-06-05T03:55:44.873Z,1.46
2023-06-05T03:58:15.469Z,1.58
2023-06-05T04:00:42.775Z,1.57
2023-06-05T04:03:10.660Z,1.70
2023-06-05T04:05:38.732Z,1.61
2023-06-05T04:08:06.655Z,1.51
2023-06-05T04:10:34.099Z,1.49
2023-06-05T04:13:01.242Z,1.53
2023-06-05T04:15:30.218Z,1.53
2023-06-05T04:17:58.020Z,1.35
2023-06-05T04:20:25.135Z,1.52
2023-06-05T04:22:52.402Z,1.39
2023-06-05T04:25:19.522Z,1.38
2023-06-05T04:27:48.495Z,1.48
2023-06-05T04:30:15.682Z,1.54
2023-06-05T04:32:44.260Z,1.46
2023-06-05T04:35:11.532Z,1.44
2023-06-05T04:37:40.564Z,1.64
2023-06-05T04:40:08.617Z,1.78
2023-06-05T04:42:35.843Z,1.62
2023-06-05T04:45:06.070Z,1.72
2023-06-05T04:47:33.735Z,1.48
2023-06-05T04:50:06.315Z,1.68
2023-06-05T04:52:34.164Z,1.52
2023-06-05T04:55:01.334Z,1.53
2023-06-05T04:57:28.859Z,1.64
2023-06-05T04:59:56.659Z,1.42
2023-06-05T05:02:24.822Z,1.83
2023-06-05T05:04:52.054Z,1.79
2023-06-05T05:07:20.652Z,1.59
2023-06-05T05:09:47.752Z,1.61
2023-06-05T05:12:14.972Z,1.73
2023-06-05T05:14:42.124Z,1.58
2023-06-05T05:17:09.262Z,1.71
2023-06-05T05:19:36.437Z,1.75
2023-06-05T05:22:03.781Z,1.53
2023-06-05T05:24:32.334Z,1.75
2023-06-05T05:26:59.493Z,1.63
2023-06-05T05:29:26.864Z,1.69
2023-06-05T05:31:54.030Z,1.90
2023-06-05T05:34:22.253Z,1.98
2023-06-05T05:36:49.376Z,1.72
2023-06-05T05:39:16.533Z,1.83
2023-06-05T05:41:45.604Z,1.51
2023-06-05T05:44:12.738Z,1.65
2023-06-05T05:46:39.832Z,1.77
2023-06-05T05:49:07.083Z,1.67
2023-06-05T05:51:34.726Z,1.44
2023-06-05T05:54:01.956Z,1.56
2023-06-05T05:56:29.055Z,1.47
2023-06-05T05:58:57.853Z,1.42
2023-06-05T06:01:24.917Z,1.52
2023-06-05T06:03:52.224Z,1.71
2023-06-05T06:06:19.507Z,1.65
2023-06-05T06:08:46.682Z,1.76
2023-06-05T06:11:14.160Z,1.75
2023-06-05T06:13:41.306Z,1.99
2023-06-05T06:16:09.923Z,1.85
2023-06-05T06:18:37.162Z,1.84
2023-06-05T06:21:04.473Z,1.73
2023-06-05T06:23:31.579Z,2.11
2023-06-05T06:25:58.737Z,2.12
2023-06-05T06:28:25.914Z,2.10
2023-06-05T06:30:53.131Z,2.03
2023-06-05T06:33:21.842Z,2.12
2023-06-05T06:35:49.014Z,2.19
2023-06-05T06:38:16.337Z,2.08
2023-06-05T06:40:43.777Z,1.96
2023-06-05T06:43:10.921Z,1.99
2023-06-05T06:45:38.071Z,1.67
2023-06-05T06:48:08.562Z,1.70
2023-06-05T06:50:37.538Z,2.10
2023-06-05T06:53:04.696Z,1.65
2023-06-05T06:55:31.887Z,1.84
2023-06-05T06:57:59.078Z,1.74
2023-06-05T07:00:26.242Z,1.56
2023-06-05T07:02:53.747Z,1.87
2023-06-05T07:05:21.252Z,1.65
2023-06-05T07:07:50.078Z,1.91
2023-06-05T07:10:17.436Z,1.85
2023-06-05T07:12:44.653Z,1.56
2023-06-05T07:15:12.032Z,1.41
2023-06-05T07:17:39.178Z,1.43
2023-06-05T07:20:07.913Z,1.54
2023-06-05T07:22:35.451Z,1.49
2023-06-05T07:25:04.519Z,1.46
2023-06-05T07:27:31.797Z,1.59
2023-06-05T07:29:58.895Z,1.56
2023-06-05T07:32:26.072Z,1.51
2023-06-05T07:34:53.568Z,1.84
2023-06-05T07:37:20.789Z,1.78
2023-06-05T07:39:47.927Z,1.43
2023-06-05T07:42:16.838Z,1.53
2023-06-05T07:44:44.270Z,1.58
2023-06-05T07:47:11.512Z,1.66
2023-06-05T07:49:38.658Z,1.73
2023-06-05T07:52:05.848Z,1.50
2023-06-05T07:54:33.014Z,1.60
2023-06-05T07:57:00.409Z,1.58
2023-06-05T07:59:29.357Z,1.62
2023-06-05T08:01:56.673Z,1.48
2023-06-05T08:04:24.419Z,1.76
2023-06-05T08:06:51.806Z,1.59
2023-06-05T08:09:19.107Z,1.56
2023-06-05T08:11:46.184Z,1.57
2023-06-05T08:14:13.319Z,1.96
2023-06-05T08:16:41.931Z,1.59
2023-06-05T08:19:09.143Z,1.93
2023-06-05T08:21:36.289Z,1.95
2023-06-05T08:24:03.698Z,2.22
2023-06-05T08:26:31.276Z,1.88
2023-06-05T08:28:58.367Z,1.62
2023-06-05T08:31:25.502Z,1.99
2023-06-05T08:33:54.047Z,1.45
2023-06-05T08:36:21.284Z,1.70
2023-06-05T08:38:48.451Z,1.78
2023-06-05T08:41:15.941Z,2.04
2023-06-05T08:43:43.824Z,1.80
2023-06-05T08:46:13.177Z,1.68
2023-06-05T08:48:44.084Z,1.91
2023-06-05T08:51:14.508Z,2.15
2023-06-05T08:53:44.604Z,2.32
2023-06-05T08:56:12.706Z,2.68
2023-06-05T08:58:40.229Z,2.14
2023-06-05T09:01:07.613Z,2.05
2023-06-05T09:03:35.175Z,2.31
2023-06-05T09:06:02.570Z,2.20
2023-06-05T09:08:32.060Z,1.86
2023-06-05T09:11:23.395Z,1.50
2023-06-05T09:13:51.284Z,1.79
2023-06-05T09:16:21.569Z,1.63
2023-06-05T09:18:56.946Z,1.86
2023-06-05T09:21:26.447Z,1.91
2023-06-05T09:23:55.085Z,1.88
2023-06-05T09:26:22.289Z,1.59
2023-06-05T09:28:56.189Z,1.70
2023-06-05T09:31:23.445Z,1.72
2023-06-05T09:33:56.707Z,1.70
2023-06-05T09:36:26.008Z,1.68
2023-06-05T09:38:54.671Z,1.37
2023-06-05T09:41:21.816Z,2.03
2023-06-05T09:43:51.347Z,1.67
2023-06-05T09:46:19.480Z,1.94
2023-06-05T09:48:54.029Z,1.83
2023-06-05T09:51:21.266Z,2.35
2023-06-05T09:53:49.970Z,1.96
2023-06-05T09:56:20.446Z,2.07
2023-06-05T09:58:49.440Z,1.95
2023-06-05T10:01:19.334Z,1.89
2023-06-05T10:03:52.290Z,2.04
2023-06-05T10:06:21.082Z,2.14
2023-06-05T10:08:50.567Z,1.86
2023-06-05T10:11:20.767Z,1.65
2023-06-05T10:13:49.285Z,1.70
2023-06-05T10:16:25.564Z,1.65
2023-06-05T10:18:56.496Z,1.78
2023-06-05T10:21:25.240Z,1.77
2023-06-05T10:23:59.535Z,1.51
2023-06-05T10:26:55.945Z,1.59
2023-06-05T10:29:44.998Z,1.73
2023-06-05T10:32:31.198Z,1.85
2023-06-05T10:35:14.185Z,1.60
2023-06-05T10:37:57.585Z,1.98
2023-06-05T10:40:26.831Z,1.69
2023-06-05T10:42:55.506Z,1.91
2023-06-05T10:45:32.363Z,1.85
2023-06-05T10:47:59.976Z,1.61
2023-06-05T10:50:30.731Z,1.63
2023-06-05T10:52:58.844Z,1.63
2023-06-05T10:55:28.244Z,1.88
2023-06-05T10:58:11.050Z,1.77
2023-06-05T11:00:39.883Z,1.45
2023-06-05T11:03:07.467Z,1.55
2023-06-05T11:05:34.931Z,1.50
2023-06-05T11:08:13.146Z,1.67
2023-06-05T11:11:03.841Z,1.44
2023-06-05T11:13:57.032Z,1.52
2023-06-05T11:16:29.221Z,1.66
2023-06-05T11:19:34.846Z,1.57
2023-06-05T11:22:07.173Z,1.61
2023-06-05T11:24:34.548Z,1.68
2023-06-05T11:27:02.214Z,1.76
2023-06-05T11:29:31.249Z,1.81
2023-06-05T11:31:58.442Z,1.67
2023-06-05T11:34:25.963Z,1.52
2023-06-05T11:36:53.127Z,1.77
2023-06-05T11:39:20.301Z,1.50
2023-06-05T11:41:49.245Z,1.43
2023-06-05T11:44:30.488Z,1.75
2023-06-05T11:46:59.290Z,1.64
2023-06-05T11:49:31.240Z,1.69
2023-06-05T11:51:58.583Z,1.60
2023-06-05T11:54:31.867Z,1.53
2023-06-05T11:57:00.560Z,1.77
2023-06-05T11:59:27.864Z,1.51
2023-06-05T12:01:55.130Z,1.70
2023-06-05T12:04:24.284Z,1.71
2023-06-05T12:06:51.466Z,1.83
2023-06-05T12:09:18.821Z,1.74
2023-06-05T12:11:46.821Z,1.67
2023-06-05T12:14:28.416Z,1.52
2023-06-05T12:16:55.935Z,1.81
2023-06-05T12:19:24.566Z,1.67
2023-06-05T12:21:51.989Z,1.78
2023-06-05T12:24:26.169Z,1.72
2023-06-05T12:26:55.471Z,1.65
2023-06-05T12:29:25.162Z,1.69
2023-06-05T12:31:53.295Z,1.72
2023-06-05T12:34:56.096Z,1.45
2023-06-05T12:37:31.611Z,1.65
2023-06-05T12:39:59.811Z,1.75
2023-06-05T12:42:27.226Z,2.00
2023-06-05T12:44:55.783Z,1.66
2023-06-05T12:47:23.053Z,1.71
2023-06-05T12:49:50.367Z,1.61
2023-06-05T12:52:17.967Z,1.66
2023-06-05T12:54:46.601Z,1.73
2023-06-05T12:57:14.039Z,1.62
2023-06-05T12:59:41.211Z,1.68
2023-06-05T13:02:08.547Z,1.61
2023-06-05T13:04:36.513Z,1.75
2023-06-05T13:07:04.537Z,1.48
2023-06-05T13:09:32.420Z,1.79
2023-06-05T13:12:01.852Z,1.56
2023-06-05T13:14:29.049Z,1.74
2023-06-05T13:16:57.956Z,1.67
2023-06-05T13:19:25.423Z,1.54
2023-06-05T13:21:53.309Z,1.65
2023-06-05T13:24:20.719Z,1.58
2023-06-05T13:26:48.131Z,1.65
2023-06-05T13:29:16.778Z,1.71
2023-06-05T13:31:44.100Z,1.71
2023-06-05T13:34:11.467Z,1.71
2023-06-05T13:36:38.624Z,1.49
2023-06-05T13:39:05.763Z,1.79
2023-06-05T13:41:33.142Z,1.68
2023-06-05T13:44:00.289Z,1.53
2023-06-05T13:46:29.050Z,1.82
2023-06-05T13:48:56.363Z,1.79
2023-06-05T13:51:23.565Z,1.66
2023-06-05T13:53:50.865Z,1.48
2023-06-05T13:56:18.087Z,1.77
2023-06-05T13:58:45.191Z,1.73
2023-06-05T14:01:12.554Z,1.65
2023-06-05T14:03:41.397Z,1.71
2023-06-05T14:06:08.952Z,1.87
2023-06-05T14:08:36.338Z,1.54
2023-06-05T14:11:03.533Z,1.45
2023-06-05T14:13:30.824Z,1.67
2023-06-05T14:15:58.063Z,1.79
2023-06-05T14:18:30.145Z,1.65
2023-06-05T14:21:00.182Z,1.39
2023-06-05T14:23:27.471Z,1.50
2023-06-05T14:25:54.694Z,1.94
2023-06-05T14:28:21.888Z,1.71
2023-06-05T14:30:49.404Z,1.52
2023-06-05T14:33:16.676Z,1.45
2023-06-05T14:35:44.174Z,1.68
2023-06-05T14:38:12.751Z,1.90
2023-06-05T14:40:39.936Z,1.68
2023-06-05T14:43:07.085Z,1.61
2023-06-05T14:45:34.483Z,1.74
2023-06-05T14:48:01.683Z,1.61
2023-06-05T14:50:29.089Z,1.67
2023-06-05T14:52:56.268Z,1.67
2023-06-05T14:55:24.840Z,1.76
2023-06-05T14:57:52.036Z,1.60
2023-06-05T15:00:19.790Z,1.71
2023-06-05T15:02:47.001Z,1.58
2023-06-05T15:05:14.328Z,1.69
2023-06-05T15:07:43.100Z,1.59
2023-06-05T15:10:11.389Z,1.49
2023-06-05T15:12:40.026Z,1.77
2023-06-05T15:17:39.882Z,1.77
2023-06-05T15:20:08.091Z,1.79
2023-06-05T15:22:35.374Z,1.69
2023-06-05T15:25:02.641Z,1.82
2023-06-05T15:27:30.010Z,1.80
2023-06-05T15:29:58.662Z,1.63
2023-06-05T15:32:26.101Z,1.61
2023-06-05T15:34:53.377Z,1.78
2023-06-05T15:37:20.564Z,1.93
2023-06-05T15:39:48.000Z,1.66
2023-06-05T15:42:19.388Z,1.81
2023-06-05T15:44:46.744Z,1.74
2023-06-05T15:47:15.371Z,1.52
2023-06-05T15:49:42.624Z,1.60
2023-06-05T15:52:09.773Z,1.48
2023-06-05T15:54:54.013Z,1.57
2023-06-05T15:57:23.765Z,1.84
2023-06-05T15:59:51.062Z,1.59
2023-06-05T16:02:19.954Z,1.84
2023-06-05T16:04:49.423Z,1.79
2023-06-05T16:07:17.092Z,1.71
2023-06-05T16:09:44.352Z,1.69
2023-06-05T16:12:11.597Z,1.77
2023-06-05T16:14:38.833Z,1.75
2023-06-05T16:17:06.756Z,1.82
2023-06-05T16:19:35.465Z,1.73
2023-06-05T16:22:02.556Z,1.93
2023-06-05T16:24:29.768Z,1.79
2023-06-05T16:26:56.959Z,1.71
2023-06-05T16:29:24.327Z,1.84
2023-06-05T16:31:51.572Z,1.53
2023-06-05T16:34:18.764Z,1.25
2023-06-05T16:36:47.630Z,1.48
2023-06-05T16:39:15.847Z,1.23
2023-06-05T16:41:43.189Z,1.29
2023-06-05T16:44:11.095Z,1.55
2023-06-05T16:46:39.973Z,1.34
2023-06-05T16:49:08.746Z,1.43
2023-06-05T16:51:36.244Z,1.42
2023-06-05T16:54:05.620Z,1.48
2023-06-05T16:56:32.971Z,1.32
2023-06-05T16:59:01.126Z,1.38
2023-06-05T17:01:29.281Z,1.53
2023-06-05T17:03:56.652Z,1.61
2023-06-05T17:06:24.317Z,1.62
2023-06-05T17:08:52.068Z,1.68
2023-06-05T17:11:20.744Z,1.75
2023-06-05T17:13:47.905Z,1.69
2023-06-05T17:16:15.110Z,1.62
2023-06-05T17:18:42.388Z,1.51
2023-06-05T17:21:10.108Z,1.63
2023-06-05T17:23:37.889Z,1.64
2023-06-05T17:26:05.304Z,1.69
2023-06-05T17:28:34.003Z,1.58
2023-06-05T17:31:02.095Z,1.76
2023-06-05T17:33:29.468Z,1.51
2023-06-05T17:35:56.653Z,1.90
2023-06-05T17:38:23.812Z,1.71
2023-06-05T17:40:51.010Z,1.61
2023-06-05T17:43:18.288Z,2.01
2023-06-05T17:45:47.261Z,1.73
2023-06-05T17:48:14.570Z,1.81
2023-06-05T17:50:41.877Z,1.57
2023-06-05T17:53:09.138Z,1.64
2023-06-05T17:55:36.590Z,1.54
2023-06-05T17:58:04.259Z,1.41
2023-06-05T18:00:31.650Z,1.66
2023-06-05T18:03:00.811Z,1.67
2023-06-05T18:05:28.103Z,1.91
2023-06-05T18:07:55.506Z,1.86
2023-06-05T18:10:22.665Z,1.64
2023-06-05T18:12:50.021Z,1.73
2023-06-05T18:15:17.426Z,1.84
2023-06-05T18:17:44.576Z,1.71
2023-06-05T18:20:13.562Z,1.80
2023-06-05T18:22:40.691Z,1.89
2023-06-05T18:25:09.649Z,1.74
2023-06-05T18:27:36.883Z,1.70
2023-06-05T18:30:04.743Z,1.50
2023-06-05T18:32:32.083Z,1.72
2023-06-05T18:34:59.330Z,1.72
2023-06-05T18:37:28.125Z,1.61
2023-06-05T18:39:55.290Z,1.92
2023-06-05T18:42:22.956Z,1.81
2023-06-05T18:44:50.105Z,2.02
2023-06-05T18:47:19.044Z,1.94
2023-06-05T18:49:47.593Z,1.89
2023-06-05T18:52:14.911Z,1.92
2023-06-05T18:54:43.471Z,2.20
2023-06-05T18:57:10.690Z,2.26
2023-06-05T18:59:37.971Z,1.93
2023-06-05T19:02:05.912Z,2.17
2023-06-05T19:04:33.204Z,1.98
2023-06-05T19:07:00.360Z,1.99
2023-06-05T19:09:27.705Z,1.80
2023-06-05T19:11:56.395Z,2.05
2023-06-05T19:14:23.606Z,1.97
2023-06-05T19:16:51.015Z,1.74
2023-06-05T19:19:18.337Z,2.01
2023-06-05T19:21:45.465Z,1.87
2023-06-05T19:24:12.679Z,1.90
2023-06-05T19:26:39.845Z,2.12
2023-06-05T19:29:08.532Z,2.06
2023-06-05T19:31:37.529Z,1.93
2023-06-05T19:34:07.170Z,1.71
2023-06-05T19:36:34.415Z,1.96
2023-06-05T19:39:02.405Z,2.00
2023-06-05T19:41:29.708Z,1.95
2023-06-05T19:43:57.014Z,1.92
2023-06-05T19:46:25.616Z,2.14
2023-06-05T19:48:52.790Z,1.79
2023-06-05T19:51:20.653Z,1.81
2023-06-05T19:53:48.171Z,2.22
2023-06-05T19:56:15.427Z,2.12
2023-06-05T19:58:42.587Z,1.96
2023-06-05T20:01:09.985Z,1.80
2023-06-05T20:03:38.766Z,1.95
2023-06-05T20:06:06.328Z,1.75
2023-06-05T20:08:33.591Z,1.84
2023-06-05T20:11:01.545Z,1.90
2023-06-05T20:13:28.789Z,1.82
2023-06-05T20:15:55.936Z,2.03
2023-06-05T20:18:23.131Z,1.90
2023-06-05T20:20:51.748Z,1.99
2023-06-05T20:23:18.826Z,2.06
2023-06-05T20:25:46.362Z,1.81
2023-06-05T20:28:13.722Z,1.97
2023-06-05T20:30:40.761Z,1.90
2023-06-05T20:33:08.120Z,1.73
2023-06-05T20:35:35.496Z,1.97
2023-06-05T20:38:04.377Z,1.86
2023-06-05T20:40:31.563Z,1.88
2023-06-05T20:42:58.765Z,1.69
2023-06-05T20:45:25.973Z,1.84
2023-06-05T20:47:53.276Z,1.81
2023-06-05T20:50:20.545Z,1.80
2023-06-05T20:52:49.069Z,1.86
2023-06-05T20:55:17.766Z,1.87
2023-06-05T20:57:44.935Z,1.92
2023-06-05T21:00:13.727Z,1.93
2023-06-05T21:02:40.934Z,1.93
2023-06-05T21:05:09.010Z,2.05
2023-06-05T21:07:36.230Z,1.78
2023-06-05T21:10:03.628Z,1.64
2023-06-05T21:12:32.211Z,1.79
2023-06-05T21:14:59.407Z,2.02
2023-06-05T21:17:26.627Z,1.81
2023-06-05T21:19:54.024Z,1.76
2023-06-05T21:22:22.081Z,1.92
2023-06-05T21:24:50.828Z,1.83
2023-06-05T21:27:17.985Z,1.74
2023-06-05T21:29:46.521Z,1.88
2023-06-05T21:32:13.793Z,1.74
2023-06-05T21:34:41.440Z,1.79
2023-06-05T21:37:08.601Z,2.17
2023-06-05T21:39:35.924Z,2.01
2023-06-05T21:42:03.199Z,1.93
2023-06-05T21:44:30.399Z,1.79
2023-06-05T21:46:59.021Z,1.85
2023-06-05T21:49:26.105Z,2.02
2023-06-05T21:51:53.297Z,1.82
2023-06-05T21:54:20.585Z,1.93
2023-06-05T21:56:47.762Z,1.75
2023-06-05T21:59:14.900Z,1.75
2023-06-05T22:01:42.075Z,1.97
2023-06-05T22:04:10.930Z,1.63
2023-06-05T22:06:38.310Z,1.97
2023-06-05T22:09:05.585Z,2.14
2023-06-05T22:11:32.969Z,1.89
2023-06-05T22:14:00.224Z,1.97
2023-06-05T22:16:27.522Z,2.07
2023-06-05T22:18:55.027Z,1.93
2023-06-05T22:21:23.548Z,1.93
2023-06-05T22:23:51.431Z,1.91
2023-06-05T22:26:19.667Z,2.10
2023-06-05T22:28:46.749Z,1.94
2023-06-05T22:31:14.097Z,1.80
2023-06-05T22:33:41.543Z,1.81
2023-06-05T22:36:09.648Z,1.66
2023-06-05T22:38:38.289Z,1.82
2023-06-05T22:41:05.800Z,1.99
2023-06-05T22:43:32.887Z,1.98
2023-06-05T22:46:00.028Z,2.00
2023-06-05T22:48:27.153Z,1.92
2023-06-05T22:50:54.208Z,2.08
2023-06-05T22:53:21.465Z,1.75
2023-06-05T22:55:50.071Z,1.77
2023-06-05T22:58:17.386Z,1.76
2023-06-05T23:00:44.623Z,1.89
2023-06-05T23:03:12.437Z,1.73
2023-06-05T23:05:40.599Z,1.89
2023-06-05T23:08:07.892Z,1.88
2023-06-05T23:10:35.084Z,1.93
2023-06-05T23:13:03.644Z,1.93
2023-06-05T23:15:30.751Z,1.74
2023-06-05T23:17:58.029Z,1.98
2023-06-05T23:20:25.163Z,2.08
2023-06-05T23:22:52.294Z,1.95
2023-06-05T23:25:19.445Z,2.10
2023-06-05T23:27:46.560Z,1.71
2023-06-05T23:30:15.407Z,1.99
2023-06-05T23:32:42.687Z,1.69
2023-06-05T23:35:09.832Z,1.62
2023-06-05T23:37:37.007Z,1.86
2023-06-05T23:40:05.151Z,1.85
2023-06-05T23:42:32.345Z,2.06
2023-06-05T23:44:59.508Z,1.80
2023-06-05T23:47:28.087Z,2.17
2023-06-05T23:49:55.264Z,2.00
2023-06-05T23:52:22.528Z,1.88
2023-06-05T23:54:49.748Z,2.00
2023-06-05T23:57:16.879Z,1.95
2023-06-05T23:59:44.026Z,1.91
